Patcona II — WDC2170 — position and weather

sailwx.info

Track history (hours):
 
Tides and Currents Weather Stations Pressure Air Temp Water Temp Dewpoint Dewpoint Depression Visibility Wind Speed Wind Dir Waves Ship Positions

Patcona II

Owner: Connolly-Pacific Co, long beach, CA. More information available from US FCC via Universal Licensing System and Coast Guard Vessel Documentation Center.

Last reported at 2014-Oct-22 21:33 UTC. Time now 2014-Oct-22 22:22 UTC.
Position N 29°41' W 095°01'.

; draft 9 m.

Type: Towing. MMSI: 366988960.

Date/timePositionNaut miles runAvg speedWind from/ knotsBaromVisibWave heightAir tempDewpointWater temp
2014-Oct-22 21:33N 29°41' W 095°01'1210725810.3
2014-Oct-22 21:33N 33°46' W 118°13'12101211.5
2014-Oct-22 20:33N 29°41' W 095°00'1210871058.6
2014-Oct-22 20:33N 33°46' W 118°13'12101211.5
2014-Oct-22 19:33N 29°41' W 095°00'1210871062.2
2014-Oct-22 19:33N 33°46' W 118°13'12101211.8
2014-Oct-22 18:33N 29°41' W 095°00'1210871062.2
2014-Oct-22 18:33N 33°46' W 118°13'12101211.1
2014-Oct-22 17:33N 29°41' W 095°00'1210871058.6
2014-Oct-22 17:33N 33°46' W 118°13'12101211.8
2014-Oct-22 16:33N 29°41' W 095°00'1210871062.2
2014-Oct-22 16:33N 33°46' W 118°13'12101211.5
2014-Oct-22 15:33N 29°41' W 095°00'1210871058.6
2014-Oct-22 15:33N 33°46' W 118°13'12101211.2
2014-Oct-22 14:33N 29°41' W 095°00'12101088827.7
2014-Oct-22 14:33N 33°46' W 118°13'12101211.5
2014-Oct-22 13:33N 29°41' W 095°00'1210871063.5
2014-Oct-22 13:33N 33°46' W 118°13'12091210.3
2014-Oct-22 12:33N 29°42' W 095°01'1209870415.4
2014-Oct-22 12:33N 33°46' W 118°13'0 0.0
2014-Oct-22 11:33N 33°46' W 118°13'120350971.1
2014-Oct-22 11:32N 29°46' W 095°06'12031232.9
2014-Oct-22 10:33N 33°46' W 118°13'12034734.3
2014-Oct-22 10:18N 29°47' W 095°06'12031613.4
2014-Oct-22 09:33N 33°46' W 118°13'12035442.1
2014-Oct-22 09:20N 29°47' W 095°06'12031544.3
2014-Oct-22 08:33N 33°46' W 118°13'1203180496.0
2014-Oct-22 08:33N 29°47' W 095°06'12031211.7
2014-Oct-22 07:33N 33°46' W 118°13'12038913.4
2014-Oct-22 07:25N 29°47' W 095°06'12031391.1
2014-Oct-22 06:33N 33°46' W 118°13'120377357.0
2014-Oct-22 06:32N 29°47' W 095°06'12031222.3
2014-Oct-22 05:33N 33°46' W 118°13'1204866735.6
2014-Oct-22 05:33N 29°45' W 095°06'12041205.1
2014-Oct-22 04:33N 33°46' W 118°13'1204866729.2
2014-Oct-22 04:33N 29°45' W 095°06'12041202.5
2014-Oct-22 03:33N 33°46' W 118°13'1204288909.7
2014-Oct-22 03:33N 29°45' W 095°06'0 0.0
2014-Oct-22 02:33N 29°45' W 095°06'1204288910.9
2014-Oct-22 02:33N 33°46' W 118°13'12041208.8
2014-Oct-22 01:33N 29°45' W 095°06'1204866727.9
2014-Oct-22 01:33N 33°46' W 118°13'12041205.8
2014-Oct-22 00:33N 29°45' W 095°06'1204866727.9
2014-Oct-22 00:33N 33°46' W 118°13'12041205.1
2014-Oct-21 23:33N 29°45' W 095°06'12041083409.9
2014-Oct-21 23:33N 33°46' W 118°13'12041205.5
2014-Oct-21 22:33N 29°45' W 095°06'1204270852.5
2014-Oct-21 22:33N 33°46' W 118°13'0 0.0
2014-Oct-21 21:33N 33°46' W 118°13'1204866731.5
2014-Oct-21 21:33N 29°45' W 095°06'0 0.0
2014-Oct-21 20:33N 29°45' W 095°06'1204722273.3
2014-Oct-21 20:33N 33°46' W 118°13'12041205.4
2014-Oct-21 19:33N 29°45' W 095°06'1204866666.8
2014-Oct-21 19:33N 33°46' W 118°13'0 0.0
2014-Oct-21 18:33N 33°46' W 118°13'1203288782.4
2014-Oct-21 18:33N 29°44' W 095°07'12031208.0
2014-Oct-21 17:33N 33°46' W 118°13'119857518.8
2014-Oct-21 17:32N 29°43' W 095°13'11981223.8
2014-Oct-21 16:33N 33°46' W 118°13'0 0.0
2014-Oct-21 15:33N 33°46' W 118°13'0 0.0
2014-Oct-21 14:33N 33°46' W 118°13'0 0.0
2014-Oct-21 13:33N 33°46' W 118°13'0 0.0
2014-Oct-21 12:33N 33°46' W 118°13'0 0.0
2014-Oct-21 11:33N 33°46' W 118°13'0 0.0
2014-Oct-21 10:33N 33°46' W 118°13'0 0.0
2014-Oct-21 09:33N 33°46' W 118°13'0 0.0
2014-Oct-21 08:33N 33°46' W 118°13'0 0.0
2014-Oct-21 07:33N 33°46' W 118°13'119717653.4
2014-Oct-21 07:29N 29°44' W 095°15'11971283.5
2014-Oct-21 06:33N 33°46' W 118°13'12011080765.5
2014-Oct-21 06:33N 29°45' W 095°10'12011202.2
2014-Oct-21 05:33N 33°46' W 118°13'0 0.0
2014-Oct-21 04:33N 33°46' W 118°13'0 0.0
2014-Oct-21 03:33N 33°46' W 118°13'0 0.0
2014-Oct-21 02:33N 33°46' W 118°13'0 0.0
2014-Oct-21 01:33N 33°46' W 118°13'12048583.5
2014-Oct-21 01:25N 29°45' W 095°06'12041401.0
2014-Oct-21 00:33N 33°46' W 118°13'0 0.0
2014-Oct-20 23:33N 33°46' W 118°13'12043821.8
2014-Oct-20 23:14N 29°45' W 095°06'12041758.2
2014-Oct-20 22:33N 33°46' W 118°13'120066442.6
2014-Oct-20 22:32N 29°45' W 095°11'12001221.4
2014-Oct-20 21:33N 33°46' W 118°13'0 0.0
2014-Oct-20 20:33N 33°46' W 118°13'0 0.0
2014-Oct-20 19:33N 33°46' W 118°13'0 0.0
2014-Oct-20 18:33N 33°46' W 118°13'0 0.0
2014-Oct-20 17:33N 33°46' W 118°13'0 0.0
2014-Oct-20 16:33N 33°46' W 118°13'11992430.0
2014-Oct-20 16:04N 29°44' W 095°12'11992364.7
2014-Oct-20 15:33N 33°46' W 118°13'11993613.0
2014-Oct-20 15:13N 29°45' W 095°12'3 3.9
2014-Oct-20 14:33N 29°44' W 095°09'1202309060.7
2014-Oct-20 14:33N 33°46' W 118°13'0 0.0
2014-Oct-20 13:33N 33°46' W 118°13'0 0.0
2014-Oct-20 12:33N 33°46' W 118°13'12023913.4
2014-Oct-20 12:15N 29°44' W 095°08'12021734.8
2014-Oct-20 11:33N 33°46' W 118°13'0 0.0
2014-Oct-20 10:33N 33°46' W 118°13'0 0.0
2014-Oct-20 09:33N 33°46' W 118°13'12026518.5
2014-Oct-20 09:22N 29°44' W 095°08'12021474.7
2014-Oct-20 08:33N 33°46' W 118°13'0 0.0
2014-Oct-20 07:33N 33°46' W 118°13'120216333.1
2014-Oct-20 07:29N 29°44' W 095°08'12021302.1
2014-Oct-20 06:34N 33°46' W 118°13'1202120229.8
2014-Oct-20 06:33N 29°44' W 095°08'12021211.0
2014-Oct-20 05:33N 33°46' W 118°13'120249750.3
2014-Oct-20 05:32N 29°44' W 095°08'12021232.1
2014-Oct-20 04:33N 33°46' W 118°13'1201720487.4
2014-Oct-20 04:33N 29°45' W 095°10'12011202.5
2014-Oct-20 03:33N 33°46' W 118°13'0 0.0
2014-Oct-20 02:33N 33°46' W 118°13'0 0.0
2014-Oct-20 01:33N 33°46' W 118°13'0 0.0
2014-Oct-20 00:33N 33°46' W 118°13'119510863.2
2014-Oct-20 00:27N 29°44' W 095°17'11951342.6
2014-Oct-19 23:33N 33°46' W 118°13'119814617.7
2014-Oct-19 23:28N 29°43' W 095°14'5 5.5
2014-Oct-19 22:33N 29°44' W 095°08'1202865761.0
2014-Oct-19 22:33N 33°46' W 118°13'0 0.0
2014-Oct-19 21:33N 33°46' W 118°13'120450394.5
2014-Oct-19 21:32N 29°45' W 095°06'12041233.3
2014-Oct-19 20:33N 33°46' W 118°13'1204120386.8
2014-Oct-19 20:33N 29°45' W 095°06'12041216.0
2014-Oct-19 19:33N 33°46' W 118°13'120414691.3
2014-Oct-19 19:28N 29°45' W 095°06'0 0.0
2014-Oct-19 18:33N 29°45' W 095°06'12041083476.9
2014-Oct-19 18:33N 33°46' W 118°13'0 0.0
2014-Oct-19 17:33N 33°46' W 118°13'120426108.0
2014-Oct-19 17:31N 29°45' W 095°06'12041262.4
2014-Oct-19 16:33N 33°46' W 118°13'120492211.2
2014-Oct-19 16:33N 29°45' W 095°06'12041219.1
2014-Oct-19 15:33N 33°46' W 118°13'1204270870.3
2014-Oct-19 15:33N 29°45' W 095°06'12041209.6
2014-Oct-19 14:33N 33°46' W 118°13'1204123826.4
2014-Oct-19 14:33N 29°45' W 095°06'0 0.0
2014-Oct-19 13:33N 29°45' W 095°06'12041083481.4
2014-Oct-19 13:33N 33°46' W 118°13'0 0.0
2014-Oct-19 12:33N 33°46' W 118°13'120496309.5
2014-Oct-19 12:33N 29°45' W 095°06'12041218.8
2014-Oct-19 11:33N 33°46' W 118°13'0 0.0
2014-Oct-19 10:33N 33°46' W 118°13'0 0.0
2014-Oct-19 09:33N 33°46' W 118°13'0 0.0
2014-Oct-19 08:33N 33°46' W 118°13'0 0.0
2014-Oct-19 07:33N 33°46' W 118°13'0 0.0
2014-Oct-19 06:33N 33°46' W 118°13'120345107.0
2014-Oct-19 06:32N 29°46' W 095°07'12031235.8
2014-Oct-19 05:33N 33°46' W 118°13'12038928.4
2014-Oct-19 05:25N 29°46' W 095°07'12031385.7
2014-Oct-19 04:33N 33°46' W 118°13'120365610.2
2014-Oct-19 04:32N 29°46' W 095°07'12031229.1
2014-Oct-19 03:33N 33°46' W 118°13'120331607.9
2014-Oct-19 03:31N 29°46' W 095°07'0 0.0
2014-Oct-19 02:33N 29°46' W 095°07'12031443424.7
2014-Oct-19 02:33N 33°46' W 118°13'0 0.0
2014-Oct-19 01:33N 33°46' W 118°13'120323407.0
2014-Oct-19 01:30N 29°46' W 095°07'12031268.0
2014-Oct-19 00:33N 33°46' W 118°13'120324744.6
2014-Oct-19 00:30N 29°46' W 095°07'12031264.7
2014-Oct-18 23:33N 33°46' W 118°13'120310665.7
2014-Oct-18 23:27N 29°46' W 095°07'12031355.3
2014-Oct-18 22:33N 33°46' W 118°13'1202180360.6
2014-Oct-18 22:33N 29°44' W 095°08'12021211.2
2014-Oct-18 21:33N 33°46' W 118°13'0 0.0
2014-Oct-18 20:33N 33°46' W 118°13'0 0.0
2014-Oct-18 19:33N 33°46' W 118°13'0 0.0
2014-Oct-18 18:33N 33°46' W 118°13'0 0.0
2014-Oct-18 17:33N 33°46' W 118°13'11962629.1
2014-Oct-18 17:06N 29°44' W 095°17'11962191.4
2014-Oct-18 16:33N 33°46' W 118°13'1199863024.2
2014-Oct-18 16:33N 29°44' W 095°13'11991200.0
2014-Oct-18 15:33N 33°46' W 118°13'1199126931.0
2014-Oct-18 15:33N 29°44' W 095°12'11991210.2
2014-Oct-18 14:33N 33°46' W 118°13'119923327.9
2014-Oct-18 14:30N 29°44' W 095°12'11991264.1
2014-Oct-18 13:33N 33°46' W 118°13'1199719275.8
2014-Oct-18 13:33N 29°44' W 095°12'0 0.0
2014-Oct-18 12:33N 29°44' W 095°12'1199863130.9
2014-Oct-18 12:33N 33°46' W 118°13'11991200.1
2014-Oct-18 11:33N 29°44' W 095°12'11991438551.6
2014-Oct-18 11:33N 33°46' W 118°13'0 0.0
2014-Oct-18 10:33N 33°46' W 118°13'1199863130.9
2014-Oct-18 10:33N 29°44' W 095°12'11991200.5
2014-Oct-18 09:33N 33°46' W 118°13'1199119879.3
2014-Oct-18 09:33N 29°44' W 095°12'0 0.0
2014-Oct-18 08:33N 29°44' W 095°12'11991078913.7
2014-Oct-18 08:33N 33°46' W 118°13'11991200.1
2014-Oct-18 07:33N 29°44' W 095°12'11991438545.6
2014-Oct-18 07:33N 33°46' W 118°13'11991200.1
2014-Oct-18 06:33N 29°45' W 095°11'11991079490.5
2014-Oct-18 06:33N 33°46' W 118°13'0 0.0
2014-Oct-18 05:33N 33°46' W 118°13'0 0.0
2014-Oct-18 04:33N 33°46' W 118°13'0 0.0
2014-Oct-18 03:33N 33°46' W 118°13'0 0.0
2014-Oct-18 02:33N 33°46' W 118°13'0 0.0
2014-Oct-18 01:33N 33°46' W 118°13'12024256.2
2014-Oct-18 01:16N 29°44' W 095°08'12021675.1
2014-Oct-18 00:33N 33°46' W 118°13'120496284.3
2014-Oct-18 00:33N 29°46' W 095°06'12041218.4
2014-Oct-17 23:33N 33°46' W 118°13'120457786.0
2014-Oct-17 23:32N 29°45' W 095°06'12041230.2
2014-Oct-17 22:33N 33°46' W 118°13'1200719764.9
2014-Oct-17 22:33N 29°45' W 095°11'6 6.1
2014-Oct-17 21:33N 29°46' W 095°04'1205723038.5
2014-Oct-17 21:33N 33°46' W 118°13'12111212.3
2014-Oct-17 20:33N 29°41' W 094°59'12111452748.9
2014-Oct-17 20:33N 33°46' W 118°13'12111212.7
2014-Oct-17 19:33N 29°37' W 095°00'1211726796.7
2014-Oct-17 19:33N 33°46' W 118°13'12111213.3
2014-Oct-17 18:33N 29°37' W 095°00'1211872136.6
2014-Oct-17 18:33N 33°46' W 118°13'12111212.7
2014-Oct-17 17:33N 29°37' W 095°00'121180753.8
2014-Oct-17 17:33N 33°46' W 118°13'12111229.8
2014-Oct-17 16:33N 29°37' W 095°00'1211872141.5
2014-Oct-17 16:33N 33°46' W 118°13'12111213.0
2014-Oct-17 15:33N 29°37' W 095°00'12111090179.7
2014-Oct-17 15:33N 33°46' W 118°13'12111212.9
2014-Oct-17 14:33N 29°41' W 094°59'1211290703.0
2014-Oct-17 14:33N 33°46' W 118°13'12051210.0
2014-Oct-17 13:33N 29°46' W 095°04'1205722970.3
2014-Oct-17 13:33N 33°46' W 118°13'0 0.0
2014-Oct-17 12:33N 33°46' W 118°13'120129806.9
2014-Oct-17 12:31N 29°45' W 095°10'12011251.7
2014-Oct-17 11:33N 33°46' W 118°13'120118313.5
2014-Oct-17 11:29N 29°45' W 095°10'0 0.0
2014-Oct-17 10:33N 29°45' W 095°10'12012160997.6
2014-Oct-17 10:33N 33°46' W 118°13'0 0.0
2014-Oct-17 09:33N 33°46' W 118°13'120131779.4
2014-Oct-17 09:31N 29°45' W 095°10'12011247.3
2014-Oct-17 08:33N 33°46' W 118°13'12012708.0
2014-Oct-17 08:07N 29°45' W 095°10'12012156.7
2014-Oct-17 07:33N 33°46' W 118°13'0 0.0
2014-Oct-17 06:33N 33°46' W 118°13'1201123485.4
2014-Oct-17 06:33N 29°45' W 095°10'12011205.6
2014-Oct-17 05:33N 33°46' W 118°13'120150253.7
2014-Oct-17 05:32N 29°45' W 095°10'2 2.0
2014-Oct-17 04:33N 29°44' W 095°08'12021082182.6
2014-Oct-17 04:33N 33°46' W 118°13'12021203.8
2014-Oct-17 03:33N 29°44' W 095°08'12021442914.0
2014-Oct-17 03:33N 33°46' W 118°13'12021203.4
2014-Oct-17 02:33N 29°44' W 095°08'12021442914.0
2014-Oct-17 02:33N 33°46' W 118°13'0 0.0
2014-Oct-17 01:33N 33°46' W 118°13'0 0.0
2014-Oct-17 00:33N 33°46' W 118°13'0 0.0
2014-Oct-16 23:33N 33°46' W 118°13'0 0.0
2014-Oct-16 22:33N 33°46' W 118°13'120411588.6
2014-Oct-16 22:27N 29°45' W 095°06'12041343.5
2014-Oct-16 21:33N 33°46' W 118°13'120396265.5
2014-Oct-16 21:33N 29°47' W 095°06'12031218.9
2014-Oct-16 20:33N 33°46' W 118°13'1203866389.1
2014-Oct-16 20:33N 29°47' W 095°06'12031205.3
2014-Oct-16 19:33N 33°46' W 118°13'120377356.2
2014-Oct-16 19:32N 29°47' W 095°06'0 0.0
2014-Oct-16 18:33N 29°47' W 095°06'1203333226.1
2014-Oct-16 18:33N 33°46' W 118°13'0 0.0
2014-Oct-16 17:33N 33°46' W 118°13'1203288796.4
2014-Oct-16 17:33N 29°47' W 095°06'0 0.4
2014-Oct-16 16:33N 29°46' W 095°06'12031083122.2
2014-Oct-16 16:33N 33°46' W 118°13'0 0.0
2014-Oct-16 15:33N 33°46' W 118°13'1202254606.0
2014-Oct-16 15:33N 29°44' W 095°08'12021208.0
2014-Oct-16 14:33N 33°46' W 118°13'12024129.9
2014-Oct-16 14:16N 29°44' W 095°08'12021696.0
2014-Oct-16 13:33N 33°46' W 118°13'1199116680.4
2014-Oct-16 13:33N 29°45' W 095°12'11991211.3
2014-Oct-16 12:33N 33°46' W 118°13'0 0.0
2014-Oct-16 11:33N 33°46' W 118°13'0 0.0
2014-Oct-16 10:33N 33°46' W 118°13'0 0.0
2014-Oct-16 09:33N 33°46' W 118°13'0 0.0
2014-Oct-16 08:33N 33°46' W 118°13'0 0.0
2014-Oct-16 07:33N 33°46' W 118°13'0 0.0
2014-Oct-16 06:33N 33°46' W 118°13'0 0.0
2014-Oct-16 05:33N 33°46' W 118°13'0 0.0
2014-Oct-16 04:33N 33°46' W 118°13'0 0.0
2014-Oct-16 03:33N 33°46' W 118°13'0 0.0
2014-Oct-16 02:33N 33°46' W 118°13'11964516.2
2014-Oct-16 02:18N 29°44' W 095°16'11961628.4
2014-Oct-16 01:34N 33°46' W 118°13'1198253712.9
2014-Oct-16 01:33N 29°44' W 095°13'11981203.4
2014-Oct-16 00:33N 33°46' W 118°13'1203288642.1
2014-Oct-16 00:33N 29°44' W 095°08'12031208.4
2014-Oct-15 23:34N 33°46' W 118°13'0 0.0
2014-Oct-15 22:33N 33°46' W 118°13'120310028.2
2014-Oct-15 22:26N 29°46' W 095°06'12031367.9
2014-Oct-15 21:34N 33°46' W 118°13'0 0.0
2014-Oct-15 20:34N 33°46' W 118°13'0 0.0
2014-Oct-15 19:33N 33°46' W 118°13'0 0.0
2014-Oct-15 18:33N 33°46' W 118°13'0 0.0
2014-Oct-15 17:33N 33°46' W 118°13'0 0.0
2014-Oct-15 16:33N 33°46' W 118°13'0 0.0
2014-Oct-15 15:33N 33°46' W 118°13'0 0.0
2014-Oct-15 14:33N 33°46' W 118°13'12032431.0
2014-Oct-15 14:04N 29°46' W 095°06'12032397.4
2014-Oct-15 13:34N 33°46' W 118°13'12035025.4
2014-Oct-15 13:19N 29°47' W 095°06'12031582.7
2014-Oct-15 12:34N 33°46' W 118°13'120331164.8
2014-Oct-15 12:31N 29°47' W 095°06'12031251.3
2014-Oct-15 11:34N 33°46' W 118°13'120331164.9
2014-Oct-15 11:31N 29°47' W 095°06'12031251.3
2014-Oct-15 10:33N 33°46' W 118°13'120330722.7
2014-Oct-15 10:31N 29°47' W 095°06'12031252.4
2014-Oct-15 09:33N 33°46' W 118°13'120331619.8
2014-Oct-15 09:31N 29°47' W 095°06'12031251.3
2014-Oct-15 08:34N 33°46' W 118°13'120331390.7
2014-Oct-15 08:31N 29°47' W 095°06'12031251.3
2014-Oct-15 07:34N 33°46' W 118°13'120313579.7
2014-Oct-15 07:28N 29°47' W 095°06'12031315.9
2014-Oct-15 06:33N 33°46' W 118°13'120333843.1
2014-Oct-15 06:31N 29°47' W 095°06'12031252.0
2014-Oct-15 05:34N 33°46' W 118°13'120330942.2
2014-Oct-15 05:31N 29°47' W 095°06'12031251.3
2014-Oct-15 04:33N 33°46' W 118°13'120331852.3
2014-Oct-15 04:31N 29°47' W 095°06'12031247.0
2014-Oct-15 03:33N 33°46' W 118°13'120333322.4
2014-Oct-15 03:31N 29°47' W 095°06'12031249.1
2014-Oct-15 02:33N 33°46' W 118°13'12035072.5
2014-Oct-15 02:19N 29°47' W 095°06'12031582.1
2014-Oct-15 01:33N 33°46' W 118°13'12038646.6
2014-Oct-15 01:25N 29°47' W 095°06'12031398.3
2014-Oct-15 00:34N 33°46' W 118°13'120330942.7
2014-Oct-15 00:31N 29°47' W 095°06'12031251.7
2014-Oct-14 23:33N 33°46' W 118°13'120329875.6
2014-Oct-14 23:31N 29°47' W 095°06'12031253.8
2014-Oct-14 22:33N 33°46' W 118°13'120330293.6
2014-Oct-14 22:31N 29°47' W 095°06'12031253.1
2014-Oct-14 21:33N 33°46' W 118°13'120329671.1
2014-Oct-14 21:31N 29°47' W 095°06'12031254.2
2014-Oct-14 20:33N 33°46' W 118°13'120313453.4
2014-Oct-14 20:28N 29°47' W 095°06'12031321.9
2014-Oct-14 19:34N 33°46' W 118°13'120330723.3
2014-Oct-14 19:31N 29°47' W 095°06'12031252.7
2014-Oct-14 18:34N 33°46' W 118°13'12041083726.0
2014-Oct-14 18:33N 29°45' W 095°06'12041205.1
2014-Oct-14 17:34N 33°46' W 118°13'12046636.5
2014-Oct-14 17:23N 29°45' W 095°06'12041471.0
2014-Oct-14 16:34N 33°46' W 118°13'120436725.8
2014-Oct-14 16:32N 29°45' W 095°06'12041243.9
2014-Oct-14 15:33N 33°46' W 118°13'120414640.7
2014-Oct-14 15:29N 29°45' W 095°06'12041312.4
2014-Oct-14 14:34N 33°46' W 118°13'120439042.0
2014-Oct-14 14:32N 29°45' W 095°06'12041238.9
2014-Oct-14 13:33N 33°46' W 118°13'120415259.4
2014-Oct-14 13:29N 29°45' W 095°06'12041306.5
2014-Oct-14 12:33N 33°46' W 118°13'120440501.3
2014-Oct-14 12:32N 29°45' W 095°06'12041240.7
2014-Oct-14 11:33N 33°46' W 118°13'120415259.3
2014-Oct-14 11:29N 29°45' W 095°06'12041307.3
2014-Oct-14 10:33N 33°46' W 118°13'120440126.3
2014-Oct-14 10:32N 29°45' W 095°06'12041240.7
2014-Oct-14 09:33N 33°46' W 118°13'120415099.9
2014-Oct-14 09:29N 29°45' W 095°06'12041308.9
2014-Oct-14 08:33N 33°46' W 118°13'12046667.1
2014-Oct-14 08:23N 29°45' W 095°06'12041468.5
2014-Oct-14 07:33N 33°46' W 118°13'120440126.3
2014-Oct-14 07:32N 29°45' W 095°06'12041244.2
2014-Oct-14 06:34N 33°46' W 118°13'120437683.8
2014-Oct-14 06:32N 29°45' W 095°06'12041240.3
2014-Oct-14 05:33N 33°46' W 118°13'1203360990.0
2014-Oct-14 05:33N 29°46' W 095°06'12031203.6
2014-Oct-14 04:33N 33°46' W 118°13'0 0.0
2014-Oct-14 03:34N 33°46' W 118°13'0 0.0
2014-Oct-14 02:33N 33°46' W 118°13'0 0.0
2014-Oct-14 01:33N 33°46' W 118°13'0 0.0
2014-Oct-14 00:33N 33°46' W 118°13'0 0.0
2014-Oct-13 23:34N 33°46' W 118°13'0 0.0
2014-Oct-13 22:33N 33°46' W 118°13'1203433111.6
2014-Oct-13 22:33N 29°46' W 095°07'12031206.4
2014-Oct-13 21:33N 33°46' W 118°13'1203144400.0
2014-Oct-13 21:33N 29°47' W 095°06'12031216.9
2014-Oct-13 20:34N 33°46' W 118°13'120314440.0
2014-Oct-13 20:29N 29°47' W 095°06'12031308.8
2014-Oct-13 19:33N 33°46' W 118°13'120318909.7
2014-Oct-13 19:30N 29°44' W 095°08'0 0.3
2014-Oct-13 18:34N 29°44' W 095°08'12034329499.1
2014-Oct-13 18:34N 33°46' W 118°13'12031200.0
2014-Oct-13 17:33N 29°44' W 095°08'12034329512.3
2014-Oct-13 17:33N 33°46' W 118°13'0 0.0
2014-Oct-13 16:34N 33°46' W 118°13'120314480.0
2014-Oct-13 16:29N 29°44' W 095°08'12031311.6
2014-Oct-13 15:34N 33°46' W 118°13'120333303.9
2014-Oct-13 15:31N 29°44' W 095°08'12031244.1
2014-Oct-13 14:33N 33°46' W 118°13'1203149293.3
2014-Oct-13 14:33N 29°44' W 095°08'12031215.8
2014-Oct-13 13:34N 33°46' W 118°13'0 0.0
2014-Oct-13 12:34N 33°46' W 118°13'0 0.0
2014-Oct-13 11:33N 33°46' W 118°13'0 0.0
2014-Oct-13 10:34N 33°46' W 118°13'0 0.0
2014-Oct-13 09:33N 33°46' W 118°13'0 0.0
2014-Oct-13 08:33N 33°46' W 118°13'0 0.0
2014-Oct-13 07:33N 33°46' W 118°13'1199134840.5
2014-Oct-13 07:33N 29°44' W 095°13'11991209.0
2014-Oct-13 06:33N 33°46' W 118°13'1198431312.7
2014-Oct-13 06:33N 29°44' W 095°13'11981201.1
2014-Oct-13 05:33N 33°46' W 118°13'119853914.2
2014-Oct-13 05:32N 29°44' W 095°13'11981225.3
2014-Oct-13 04:33N 33°46' W 118°13'1198539080.9
2014-Oct-13 04:33N 29°44' W 095°14'11981204.0
2014-Oct-13 03:34N 33°46' W 118°13'0 0.0
2014-Oct-13 02:33N 33°46' W 118°13'0 0.0
2014-Oct-13 01:33N 33°46' W 118°13'0 0.0
2014-Oct-13 00:34N 33°46' W 118°13'0 0.0
2014-Oct-12 23:33N 33°46' W 118°13'119713343.8
2014-Oct-12 23:28N 29°43' W 095°15'11971318.9
2014-Oct-12 22:34N 33°46' W 118°13'1202206106.6
2014-Oct-12 22:33N 29°44' W 095°08'  
Track history (hours):
 
Tides and Currents Weather Stations Pressure Air Temp Water Temp Dewpoint Dewpoint Depression Visibility Wind Speed Wind Dir Waves Ship Positions

Patcona II

Owner: Connolly-Pacific Co, long beach, CA. More information available from US FCC via Universal Licensing System and Coast Guard Vessel Documentation Center.

Last reported at 2014-Oct-22 21:33 UTC. Time now 2014-Oct-22 22:22 UTC.
Position N 29°41' W 095°01'.

; draft 9 m.

Type: Towing. MMSI: 366988960.

Date/timePositionNaut miles runAvg speedWind from/ knotsBaromVisibWave heightAir tempDewpointWater temp
2014-Oct-22 21:33N 29°41' W 095°01'1210725810.3
2014-Oct-22 21:33N 33°46' W 118°13'12101211.5
2014-Oct-22 20:33N 29°41' W 095°00'1210871058.6
2014-Oct-22 20:33N 33°46' W 118°13'12101211.5
2014-Oct-22 19:33N 29°41' W 095°00'1210871062.2
2014-Oct-22 19:33N 33°46' W 118°13'12101211.8
2014-Oct-22 18:33N 29°41' W 095°00'1210871062.2
2014-Oct-22 18:33N 33°46' W 118°13'12101211.1
2014-Oct-22 17:33N 29°41' W 095°00'1210871058.6
2014-Oct-22 17:33N 33°46' W 118°13'12101211.8
2014-Oct-22 16:33N 29°41' W 095°00'1210871062.2
2014-Oct-22 16:33N 33°46' W 118°13'12101211.5
2014-Oct-22 15:33N 29°41' W 095°00'1210871058.6
2014-Oct-22 15:33N 33°46' W 118°13'12101211.2
2014-Oct-22 14:33N 29°41' W 095°00'12101088827.7
2014-Oct-22 14:33N 33°46' W 118°13'12101211.5
2014-Oct-22 13:33N 29°41' W 095°00'1210871063.5
2014-Oct-22 13:33N 33°46' W 118°13'12091210.3
2014-Oct-22 12:33N 29°42' W 095°01'1209870415.4
2014-Oct-22 12:33N 33°46' W 118°13'0 0.0
2014-Oct-22 11:33N 33°46' W 118°13'120350971.1
2014-Oct-22 11:32N 29°46' W 095°06'12031232.9
2014-Oct-22 10:33N 33°46' W 118°13'12034734.3
2014-Oct-22 10:18N 29°47' W 095°06'12031613.4
2014-Oct-22 09:33N 33°46' W 118°13'12035442.1
2014-Oct-22 09:20N 29°47' W 095°06'12031544.3
2014-Oct-22 08:33N 33°46' W 118°13'1203180496.0
2014-Oct-22 08:33N 29°47' W 095°06'12031211.7
2014-Oct-22 07:33N 33°46' W 118°13'12038913.4
2014-Oct-22 07:25N 29°47' W 095°06'12031391.1
2014-Oct-22 06:33N 33°46' W 118°13'120377357.0
2014-Oct-22 06:32N 29°47' W 095°06'12031222.3
2014-Oct-22 05:33N 33°46' W 118°13'1204866735.6
2014-Oct-22 05:33N 29°45' W 095°06'12041205.1
2014-Oct-22 04:33N 33°46' W 118°13'1204866729.2
2014-Oct-22 04:33N 29°45' W 095°06'12041202.5
2014-Oct-22 03:33N 33°46' W 118°13'1204288909.7
2014-Oct-22 03:33N 29°45' W 095°06'0 0.0
2014-Oct-22 02:33N 29°45' W 095°06'1204288910.9
2014-Oct-22 02:33N 33°46' W 118°13'12041208.8
2014-Oct-22 01:33N 29°45' W 095°06'1204866727.9
2014-Oct-22 01:33N 33°46' W 118°13'12041205.8
2014-Oct-22 00:33N 29°45' W 095°06'1204866727.9
2014-Oct-22 00:33N 33°46' W 118°13'12041205.1
2014-Oct-21 23:33N 29°45' W 095°06'12041083409.9
2014-Oct-21 23:33N 33°46' W 118°13'12041205.5
2014-Oct-21 22:33N 29°45' W 095°06'1204270852.5
2014-Oct-21 22:33N 33°46' W 118°13'0 0.0
2014-Oct-21 21:33N 33°46' W 118°13'1204866731.5
2014-Oct-21 21:33N 29°45' W 095°06'0 0.0
2014-Oct-21 20:33N 29°45' W 095°06'1204722273.3
2014-Oct-21 20:33N 33°46' W 118°13'12041205.4
2014-Oct-21 19:33N 29°45' W 095°06'1204866666.8
2014-Oct-21 19:33N 33°46' W 118°13'0 0.0
2014-Oct-21 18:33N 33°46' W 118°13'1203288782.4
2014-Oct-21 18:33N 29°44' W 095°07'12031208.0
2014-Oct-21 17:33N 33°46' W 118°13'119857518.8
2014-Oct-21 17:32N 29°43' W 095°13'11981223.8
2014-Oct-21 16:33N 33°46' W 118°13'0 0.0
2014-Oct-21 15:33N 33°46' W 118°13'0 0.0
2014-Oct-21 14:33N 33°46' W 118°13'0 0.0
2014-Oct-21 13:33N 33°46' W 118°13'0 0.0
2014-Oct-21 12:33N 33°46' W 118°13'0 0.0
2014-Oct-21 11:33N 33°46' W 118°13'0 0.0
2014-Oct-21 10:33N 33°46' W 118°13'0 0.0
2014-Oct-21 09:33N 33°46' W 118°13'0 0.0
2014-Oct-21 08:33N 33°46' W 118°13'0 0.0
2014-Oct-21 07:33N 33°46' W 118°13'119717653.4
2014-Oct-21 07:29N 29°44' W 095°15'11971283.5
2014-Oct-21 06:33N 33°46' W 118°13'12011080765.5
2014-Oct-21 06:33N 29°45' W 095°10'12011202.2
2014-Oct-21 05:33N 33°46' W 118°13'0 0.0
2014-Oct-21 04:33N 33°46' W 118°13'0 0.0
2014-Oct-21 03:33N 33°46' W 118°13'0 0.0
2014-Oct-21 02:33N 33°46' W 118°13'0 0.0
2014-Oct-21 01:33N 33°46' W 118°13'12048583.5
2014-Oct-21 01:25N 29°45' W 095°06'12041401.0
2014-Oct-21 00:33N 33°46' W 118°13'0 0.0
2014-Oct-20 23:33N 33°46' W 118°13'12043821.8
2014-Oct-20 23:14N 29°45' W 095°06'12041758.2
2014-Oct-20 22:33N 33°46' W 118°13'120066442.6
2014-Oct-20 22:32N 29°45' W 095°11'12001221.4
2014-Oct-20 21:33N 33°46' W 118°13'0 0.0
2014-Oct-20 20:33N 33°46' W 118°13'0 0.0
2014-Oct-20 19:33N 33°46' W 118°13'0 0.0
2014-Oct-20 18:33N 33°46' W 118°13'0 0.0
2014-Oct-20 17:33N 33°46' W 118°13'0 0.0
2014-Oct-20 16:33N 33°46' W 118°13'11992430.0
2014-Oct-20 16:04N 29°44' W 095°12'11992364.7
2014-Oct-20 15:33N 33°46' W 118°13'11993613.0
2014-Oct-20 15:13N 29°45' W 095°12'3 3.9
2014-Oct-20 14:33N 29°44' W 095°09'1202309060.7
2014-Oct-20 14:33N 33°46' W 118°13'0 0.0
2014-Oct-20 13:33N 33°46' W 118°13'0 0.0
2014-Oct-20 12:33N 33°46' W 118°13'12023913.4
2014-Oct-20 12:15N 29°44' W 095°08'12021734.8
2014-Oct-20 11:33N 33°46' W 118°13'0 0.0
2014-Oct-20 10:33N 33°46' W 118°13'0 0.0
2014-Oct-20 09:33N 33°46' W 118°13'12026518.5
2014-Oct-20 09:22N 29°44' W 095°08'12021474.7
2014-Oct-20 08:33N 33°46' W 118°13'0 0.0
2014-Oct-20 07:33N 33°46' W 118°13'120216333.1
2014-Oct-20 07:29N 29°44' W 095°08'12021302.1
2014-Oct-20 06:34N 33°46' W 118°13'1202120229.8
2014-Oct-20 06:33N 29°44' W 095°08'12021211.0
2014-Oct-20 05:33N 33°46' W 118°13'120249750.3
2014-Oct-20 05:32N 29°44' W 095°08'12021232.1
2014-Oct-20 04:33N 33°46' W 118°13'1201720487.4
2014-Oct-20 04:33N 29°45' W 095°10'12011202.5
2014-Oct-20 03:33N 33°46' W 118°13'0 0.0
2014-Oct-20 02:33N 33°46' W 118°13'0 0.0
2014-Oct-20 01:33N 33°46' W 118°13'0 0.0
2014-Oct-20 00:33N 33°46' W 118°13'119510863.2
2014-Oct-20 00:27N 29°44' W 095°17'11951342.6
2014-Oct-19 23:33N 33°46' W 118°13'119814617.7
2014-Oct-19 23:28N 29°43' W 095°14'5 5.5
2014-Oct-19 22:33N 29°44' W 095°08'1202865761.0
2014-Oct-19 22:33N 33°46' W 118°13'0 0.0
2014-Oct-19 21:33N 33°46' W 118°13'120450394.5
2014-Oct-19 21:32N 29°45' W 095°06'12041233.3
2014-Oct-19 20:33N 33°46' W 118°13'1204120386.8
2014-Oct-19 20:33N 29°45' W 095°06'12041216.0
2014-Oct-19 19:33N 33°46' W 118°13'120414691.3
2014-Oct-19 19:28N 29°45' W 095°06'0 0.0
2014-Oct-19 18:33N 29°45' W 095°06'12041083476.9
2014-Oct-19 18:33N 33°46' W 118°13'0 0.0
2014-Oct-19 17:33N 33°46' W 118°13'120426108.0
2014-Oct-19 17:31N 29°45' W 095°06'12041262.4
2014-Oct-19 16:33N 33°46' W 118°13'120492211.2
2014-Oct-19 16:33N 29°45' W 095°06'12041219.1
2014-Oct-19 15:33N 33°46' W 118°13'1204270870.3
2014-Oct-19 15:33N 29°45' W 095°06'12041209.6
2014-Oct-19 14:33N 33°46' W 118°13'1204123826.4
2014-Oct-19 14:33N 29°45' W 095°06'0 0.0
2014-Oct-19 13:33N 29°45' W 095°06'12041083481.4
2014-Oct-19 13:33N 33°46' W 118°13'0 0.0
2014-Oct-19 12:33N 33°46' W 118°13'120496309.5
2014-Oct-19 12:33N 29°45' W 095°06'12041218.8
2014-Oct-19 11:33N 33°46' W 118°13'0 0.0
2014-Oct-19 10:33N 33°46' W 118°13'0 0.0
2014-Oct-19 09:33N 33°46' W 118°13'0 0.0
2014-Oct-19 08:33N 33°46' W 118°13'0 0.0
2014-Oct-19 07:33N 33°46' W 118°13'0 0.0
2014-Oct-19 06:33N 33°46' W 118°13'120345107.0
2014-Oct-19 06:32N 29°46' W 095°07'12031235.8
2014-Oct-19 05:33N 33°46' W 118°13'12038928.4
2014-Oct-19 05:25N 29°46' W 095°07'12031385.7
2014-Oct-19 04:33N 33°46' W 118°13'120365610.2
2014-Oct-19 04:32N 29°46' W 095°07'12031229.1
2014-Oct-19 03:33N 33°46' W 118°13'120331607.9
2014-Oct-19 03:31N 29°46' W 095°07'0 0.0
2014-Oct-19 02:33N 29°46' W 095°07'12031443424.7
2014-Oct-19 02:33N 33°46' W 118°13'0 0.0
2014-Oct-19 01:33N 33°46' W 118°13'120323407.0
2014-Oct-19 01:30N 29°46' W 095°07'12031268.0
2014-Oct-19 00:33N 33°46' W 118°13'120324744.6
2014-Oct-19 00:30N 29°46' W 095°07'12031264.7
2014-Oct-18 23:33N 33°46' W 118°13'120310665.7
2014-Oct-18 23:27N 29°46' W 095°07'12031355.3
2014-Oct-18 22:33N 33°46' W 118°13'1202180360.6
2014-Oct-18 22:33N 29°44' W 095°08'12021211.2
2014-Oct-18 21:33N 33°46' W 118°13'0 0.0
2014-Oct-18 20:33N 33°46' W 118°13'0 0.0
2014-Oct-18 19:33N 33°46' W 118°13'0 0.0
2014-Oct-18 18:33N 33°46' W 118°13'0 0.0
2014-Oct-18 17:33N 33°46' W 118°13'11962629.1
2014-Oct-18 17:06N 29°44' W 095°17'11962191.4
2014-Oct-18 16:33N 33°46' W 118°13'1199863024.2
2014-Oct-18 16:33N 29°44' W 095°13'11991200.0
2014-Oct-18 15:33N 33°46' W 118°13'1199126931.0
2014-Oct-18 15:33N 29°44' W 095°12'11991210.2
2014-Oct-18 14:33N 33°46' W 118°13'119923327.9
2014-Oct-18 14:30N 29°44' W 095°12'11991264.1
2014-Oct-18 13:33N 33°46' W 118°13'1199719275.8
2014-Oct-18 13:33N 29°44' W 095°12'0 0.0
2014-Oct-18 12:33N 29°44' W 095°12'1199863130.9
2014-Oct-18 12:33N 33°46' W 118°13'11991200.1
2014-Oct-18 11:33N 29°44' W 095°12'11991438551.6
2014-Oct-18 11:33N 33°46' W 118°13'0 0.0
2014-Oct-18 10:33N 33°46' W 118°13'1199863130.9
2014-Oct-18 10:33N 29°44' W 095°12'11991200.5
2014-Oct-18 09:33N 33°46' W 118°13'1199119879.3
2014-Oct-18 09:33N 29°44' W 095°12'0 0.0
2014-Oct-18 08:33N 29°44' W 095°12'11991078913.7
2014-Oct-18 08:33N 33°46' W 118°13'11991200.1
2014-Oct-18 07:33N 29°44' W 095°12'11991438545.6
2014-Oct-18 07:33N 33°46' W 118°13'11991200.1
2014-Oct-18 06:33N 29°45' W 095°11'11991079490.5
2014-Oct-18 06:33N 33°46' W 118°13'0 0.0
2014-Oct-18 05:33N 33°46' W 118°13'0 0.0
2014-Oct-18 04:33N 33°46' W 118°13'0 0.0
2014-Oct-18 03:33N 33°46' W 118°13'0 0.0
2014-Oct-18 02:33N 33°46' W 118°13'0 0.0
2014-Oct-18 01:33N 33°46' W 118°13'12024256.2
2014-Oct-18 01:16N 29°44' W 095°08'12021675.1
2014-Oct-18 00:33N 33°46' W 118°13'120496284.3
2014-Oct-18 00:33N 29°46' W 095°06'12041218.4
2014-Oct-17 23:33N 33°46' W 118°13'120457786.0
2014-Oct-17 23:32N 29°45' W 095°06'12041230.2
2014-Oct-17 22:33N 33°46' W 118°13'1200719764.9
2014-Oct-17 22:33N 29°45' W 095°11'6 6.1
2014-Oct-17 21:33N 29°46' W 095°04'1205723038.5
2014-Oct-17 21:33N 33°46' W 118°13'12111212.3
2014-Oct-17 20:33N 29°41' W 094°59'12111452748.9
2014-Oct-17 20:33N 33°46' W 118°13'12111212.7
2014-Oct-17 19:33N 29°37' W 095°00'1211726796.7
2014-Oct-17 19:33N 33°46' W 118°13'12111213.3
2014-Oct-17 18:33N 29°37' W 095°00'1211872136.6
2014-Oct-17 18:33N 33°46' W 118°13'12111212.7
2014-Oct-17 17:33N 29°37' W 095°00'121180753.8
2014-Oct-17 17:33N 33°46' W 118°13'12111229.8
2014-Oct-17 16:33N 29°37' W 095°00'1211872141.5
2014-Oct-17 16:33N 33°46' W 118°13'12111213.0
2014-Oct-17 15:33N 29°37' W 095°00'12111090179.7
2014-Oct-17 15:33N 33°46' W 118°13'12111212.9
2014-Oct-17 14:33N 29°41' W 094°59'1211290703.0
2014-Oct-17 14:33N 33°46' W 118°13'12051210.0
2014-Oct-17 13:33N 29°46' W 095°04'1205722970.3
2014-Oct-17 13:33N 33°46' W 118°13'0 0.0
2014-Oct-17 12:33N 33°46' W 118°13'120129806.9
2014-Oct-17 12:31N 29°45' W 095°10'12011251.7
2014-Oct-17 11:33N 33°46' W 118°13'120118313.5
2014-Oct-17 11:29N 29°45' W 095°10'0 0.0
2014-Oct-17 10:33N 29°45' W 095°10'12012160997.6
2014-Oct-17 10:33N 33°46' W 118°13'0 0.0
2014-Oct-17 09:33N 33°46' W 118°13'120131779.4
2014-Oct-17 09:31N 29°45' W 095°10'12011247.3
2014-Oct-17 08:33N 33°46' W 118°13'12012708.0
2014-Oct-17 08:07N 29°45' W 095°10'12012156.7
2014-Oct-17 07:33N 33°46' W 118°13'0 0.0
2014-Oct-17 06:33N 33°46' W 118°13'1201123485.4
2014-Oct-17 06:33N 29°45' W 095°10'12011205.6
2014-Oct-17 05:33N 33°46' W 118°13'120150253.7
2014-Oct-17 05:32N 29°45' W 095°10'2 2.0
2014-Oct-17 04:33N 29°44' W 095°08'12021082182.6
2014-Oct-17 04:33N 33°46' W 118°13'12021203.8
2014-Oct-17 03:33N 29°44' W 095°08'12021442914.0
2014-Oct-17 03:33N 33°46' W 118°13'12021203.4
2014-Oct-17 02:33N 29°44' W 095°08'12021442914.0
2014-Oct-17 02:33N 33°46' W 118°13'0 0.0
2014-Oct-17 01:33N 33°46' W 118°13'0 0.0
2014-Oct-17 00:33N 33°46' W 118°13'0 0.0
2014-Oct-16 23:33N 33°46' W 118°13'0 0.0
2014-Oct-16 22:33N 33°46' W 118°13'120411588.6
2014-Oct-16 22:27N 29°45' W 095°06'12041343.5
2014-Oct-16 21:33N 33°46' W 118°13'120396265.5
2014-Oct-16 21:33N 29°47' W 095°06'12031218.9
2014-Oct-16 20:33N 33°46' W 118°13'1203866389.1
2014-Oct-16 20:33N 29°47' W 095°06'12031205.3
2014-Oct-16 19:33N 33°46' W 118°13'120377356.2
2014-Oct-16 19:32N 29°47' W 095°06'0 0.0
2014-Oct-16 18:33N 29°47' W 095°06'1203333226.1
2014-Oct-16 18:33N 33°46' W 118°13'0 0.0
2014-Oct-16 17:33N 33°46' W 118°13'1203288796.4
2014-Oct-16 17:33N 29°47' W 095°06'0 0.4
2014-Oct-16 16:33N 29°46' W 095°06'12031083122.2
2014-Oct-16 16:33N 33°46' W 118°13'0 0.0
2014-Oct-16 15:33N 33°46' W 118°13'1202254606.0
2014-Oct-16 15:33N 29°44' W 095°08'12021208.0
2014-Oct-16 14:33N 33°46' W 118°13'12024129.9
2014-Oct-16 14:16N 29°44' W 095°08'12021696.0
2014-Oct-16 13:33N 33°46' W 118°13'1199116680.4
2014-Oct-16 13:33N 29°45' W 095°12'11991211.3
2014-Oct-16 12:33N 33°46' W 118°13'0 0.0
2014-Oct-16 11:33N 33°46' W 118°13'0 0.0
2014-Oct-16 10:33N 33°46' W 118°13'0 0.0
2014-Oct-16 09:33N 33°46' W 118°13'0 0.0
2014-Oct-16 08:33N 33°46' W 118°13'0 0.0
2014-Oct-16 07:33N 33°46' W 118°13'0 0.0
2014-Oct-16 06:33N 33°46' W 118°13'0 0.0
2014-Oct-16 05:33N 33°46' W 118°13'0 0.0
2014-Oct-16 04:33N 33°46' W 118°13'0 0.0
2014-Oct-16 03:33N 33°46' W 118°13'0 0.0
2014-Oct-16 02:33N 33°46' W 118°13'11964516.2
2014-Oct-16 02:18N 29°44' W 095°16'11961628.4
2014-Oct-16 01:34N 33°46' W 118°13'1198253712.9
2014-Oct-16 01:33N 29°44' W 095°13'11981203.4
2014-Oct-16 00:33N 33°46' W 118°13'1203288642.1
2014-Oct-16 00:33N 29°44' W 095°08'12031208.4
2014-Oct-15 23:34N 33°46' W 118°13'0 0.0
2014-Oct-15 22:33N 33°46' W 118°13'120310028.2
2014-Oct-15 22:26N 29°46' W 095°06'12031367.9
2014-Oct-15 21:34N 33°46' W 118°13'0 0.0
2014-Oct-15 20:34N 33°46' W 118°13'0 0.0
2014-Oct-15 19:33N 33°46' W 118°13'0 0.0
2014-Oct-15 18:33N 33°46' W 118°13'0 0.0
2014-Oct-15 17:33N 33°46' W 118°13'0 0.0
2014-Oct-15 16:33N 33°46' W 118°13'0 0.0
2014-Oct-15 15:33N 33°46' W 118°13'0 0.0
2014-Oct-15 14:33N 33°46' W 118°13'12032431.0
2014-Oct-15 14:04N 29°46' W 095°06'12032397.4
2014-Oct-15 13:34N 33°46' W 118°13'12035025.4
2014-Oct-15 13:19N 29°47' W 095°06'12031582.7
2014-Oct-15 12:34N 33°46' W 118°13'120331164.8
2014-Oct-15 12:31N 29°47' W 095°06'12031251.3
2014-Oct-15 11:34N 33°46' W 118°13'120331164.9
2014-Oct-15 11:31N 29°47' W 095°06'12031251.3
2014-Oct-15 10:33N 33°46' W 118°13'120330722.7
2014-Oct-15 10:31N 29°47' W 095°06'12031252.4
2014-Oct-15 09:33N 33°46' W 118°13'120331619.8
2014-Oct-15 09:31N 29°47' W 095°06'12031251.3
2014-Oct-15 08:34N 33°46' W 118°13'120331390.7
2014-Oct-15 08:31N 29°47' W 095°06'12031251.3
2014-Oct-15 07:34N 33°46' W 118°13'120313579.7
2014-Oct-15 07:28N 29°47' W 095°06'12031315.9
2014-Oct-15 06:33N 33°46' W 118°13'120333843.1
2014-Oct-15 06:31N 29°47' W 095°06'12031252.0
2014-Oct-15 05:34N 33°46' W 118°13'120330942.2
2014-Oct-15 05:31N 29°47' W 095°06'12031251.3
2014-Oct-15 04:33N 33°46' W 118°13'120331852.3
2014-Oct-15 04:31N 29°47' W 095°06'12031247.0
2014-Oct-15 03:33N 33°46' W 118°13'120333322.4
2014-Oct-15 03:31N 29°47' W 095°06'12031249.1
2014-Oct-15 02:33N 33°46' W 118°13'12035072.5
2014-Oct-15 02:19N 29°47' W 095°06'12031582.1
2014-Oct-15 01:33N 33°46' W 118°13'12038646.6
2014-Oct-15 01:25N 29°47' W 095°06'12031398.3
2014-Oct-15 00:34N 33°46' W 118°13'120330942.7
2014-Oct-15 00:31N 29°47' W 095°06'12031251.7
2014-Oct-14 23:33N 33°46' W 118°13'120329875.6
2014-Oct-14 23:31N 29°47' W 095°06'12031253.8
2014-Oct-14 22:33N 33°46' W 118°13'120330293.6
2014-Oct-14 22:31N 29°47' W 095°06'12031253.1
2014-Oct-14 21:33N 33°46' W 118°13'120329671.1
2014-Oct-14 21:31N 29°47' W 095°06'12031254.2
2014-Oct-14 20:33N 33°46' W 118°13'120313453.4
2014-Oct-14 20:28N 29°47' W 095°06'12031321.9
2014-Oct-14 19:34N 33°46' W 118°13'120330723.3
2014-Oct-14 19:31N 29°47' W 095°06'12031252.7
2014-Oct-14 18:34N 33°46' W 118°13'12041083726.0
2014-Oct-14 18:33N 29°45' W 095°06'12041205.1
2014-Oct-14 17:34N 33°46' W 118°13'12046636.5
2014-Oct-14 17:23N 29°45' W 095°06'12041471.0
2014-Oct-14 16:34N 33°46' W 118°13'120436725.8
2014-Oct-14 16:32N 29°45' W 095°06'12041243.9
2014-Oct-14 15:33N 33°46' W 118°13'120414640.7
2014-Oct-14 15:29N 29°45' W 095°06'12041312.4
2014-Oct-14 14:34N 33°46' W 118°13'120439042.0
2014-Oct-14 14:32N 29°45' W 095°06'12041238.9
2014-Oct-14 13:33N 33°46' W 118°13'120415259.4
2014-Oct-14 13:29N 29°45' W 095°06'12041306.5
2014-Oct-14 12:33N 33°46' W 118°13'120440501.3
2014-Oct-14 12:32N 29°45' W 095°06'12041240.7
2014-Oct-14 11:33N 33°46' W 118°13'120415259.3
2014-Oct-14 11:29N 29°45' W 095°06'12041307.3
2014-Oct-14 10:33N 33°46' W 118°13'120440126.3
2014-Oct-14 10:32N 29°45' W 095°06'12041240.7
2014-Oct-14 09:33N 33°46' W 118°13'120415099.9
2014-Oct-14 09:29N 29°45' W 095°06'12041308.9
2014-Oct-14 08:33N 33°46' W 118°13'12046667.1
2014-Oct-14 08:23N 29°45' W 095°06'12041468.5
2014-Oct-14 07:33N 33°46' W 118°13'120440126.3
2014-Oct-14 07:32N 29°45' W 095°06'12041244.2
2014-Oct-14 06:34N 33°46' W 118°13'120437683.8
2014-Oct-14 06:32N 29°45' W 095°06'12041240.3
2014-Oct-14 05:33N 33°46' W 118°13'1203360990.0
2014-Oct-14 05:33N 29°46' W 095°06'12031203.6
2014-Oct-14 04:33N 33°46' W 118°13'0 0.0
2014-Oct-14 03:34N 33°46' W 118°13'0 0.0
2014-Oct-14 02:33N 33°46' W 118°13'0 0.0
2014-Oct-14 01:33N 33°46' W 118°13'0 0.0
2014-Oct-14 00:33N 33°46' W 118°13'0 0.0
2014-Oct-13 23:34N 33°46' W 118°13'0 0.0
2014-Oct-13 22:33N 33°46' W 118°13'1203433111.6
2014-Oct-13 22:33N 29°46' W 095°07'12031206.4
2014-Oct-13 21:33N 33°46' W 118°13'1203144400.0
2014-Oct-13 21:33N 29°47' W 095°06'12031216.9
2014-Oct-13 20:34N 33°46' W 118°13'120314440.0
2014-Oct-13 20:29N 29°47' W 095°06'12031308.8
2014-Oct-13 19:33N 33°46' W 118°13'120318909.7
2014-Oct-13 19:30N 29°44' W 095°08'0 0.3
2014-Oct-13 18:34N 29°44' W 095°08'12034329499.1
2014-Oct-13 18:34N 33°46' W 118°13'12031200.0
2014-Oct-13 17:33N 29°44' W 095°08'12034329512.3
2014-Oct-13 17:33N 33°46' W 118°13'0 0.0
2014-Oct-13 16:34N 33°46' W 118°13'120314480.0
2014-Oct-13 16:29N 29°44' W 095°08'12031311.6
2014-Oct-13 15:34N 33°46' W 118°13'120333303.9
2014-Oct-13 15:31N 29°44' W 095°08'12031244.1
2014-Oct-13 14:33N 33°46' W 118°13'1203149293.3
2014-Oct-13 14:33N 29°44' W 095°08'12031215.8
2014-Oct-13 13:34N 33°46' W 118°13'0 0.0
2014-Oct-13 12:34N 33°46' W 118°13'0 0.0
2014-Oct-13 11:33N 33°46' W 118°13'0 0.0
2014-Oct-13 10:34N 33°46' W 118°13'0 0.0
2014-Oct-13 09:33N 33°46' W 118°13'0 0.0
2014-Oct-13 08:33N 33°46' W 118°13'0 0.0
2014-Oct-13 07:33N 33°46' W 118°13'1199134840.5
2014-Oct-13 07:33N 29°44' W 095°13'11991209.0
2014-Oct-13 06:33N 33°46' W 118°13'1198431312.7
2014-Oct-13 06:33N 29°44' W 095°13'11981201.1
2014-Oct-13 05:33N 33°46' W 118°13'119853914.2
2014-Oct-13 05:32N 29°44' W 095°13'11981225.3
2014-Oct-13 04:33N 33°46' W 118°13'1198539080.9
2014-Oct-13 04:33N 29°44' W 095°14'11981204.0
2014-Oct-13 03:34N 33°46' W 118°13'0 0.0
2014-Oct-13 02:33N 33°46' W 118°13'0 0.0
2014-Oct-13 01:33N 33°46' W 118°13'0 0.0
2014-Oct-13 00:34N 33°46' W 118°13'0 0.0
2014-Oct-12 23:33N 33°46' W 118°13'119713343.8
2014-Oct-12 23:28N 29°43' W 095°15'11971318.9
2014-Oct-12 22:34N 33°46' W 118°13'1202206106.6
2014-Oct-12 22:33N 29°44' W 095°08'  

Dump ship's entire track history